Time;durP1;ratioP1;P1;durP2;ratioP2;P2;SDS_P1;SDS_P2;PMS_P1;PMS_P2;Temp;Humidity;BMP_temperature;BMP_pressure;BME280_temperature;BME280_humidity;BME280_pressure;Samples;Min_cycle;Max_cycle;Signal;HPM_P1;HPM_P2
2023/12/02 00:00:46;;;;;;;12.60;9.67;;;;;;;15.78;100.00;150004.44;6184540;23;20667;-59
2023/12/02 00:03:14;;;;;;;11.53;10.60;;;;;;;15.70;100.00;149982.84;6184122;23;20162;-58
2023/12/02 00:05:41;;;;;;;11.47;10.40;;;;;;;15.69;100.00;149980.31;6183975;23;20217;-59
2023/12/02 00:08:08;;;;;;;11.07;10.30;;;;;;;15.58;100.00;149953.63;6184170;23;20162;-59
2023/12/02 00:10:35;;;;;;;9.90;9.10;;;;;;;15.65;100.00;149971.44;6184446;23;20193;-59
2023/12/02 00:13:02;;;;;;;9.23;8.70;;;;;;;15.70;100.00;149982.84;6183921;23;20162;-59
2023/12/02 00:15:31;;;;;;;9.80;8.87;;;;;;;15.71;100.00;149986.63;6183897;23;20213;-59
2023/12/02 00:17:58;;;;;;;9.13;8.43;;;;;;;15.39;100.00;149906.66;6183770;23;20216;-59
2023/12/02 00:20:25;;;;;;;8.80;8.30;;;;;;;15.65;100.00;149970.16;6183915;23;20220;-58
2023/12/02 00:22:52;;;;;;;8.60;7.93;;;;;;;15.61;100.00;149961.28;6184221;23;20500;-59
2023/12/02 00:25:19;;;;;;;9.20;8.43;;;;;;;15.56;100.00;149948.59;6183821;23;20190;-58
2023/12/02 00:27:46;;;;;;;8.63;8.17;;;;;;;15.64;100.00;149968.88;6183755;23;20221;-59
2023/12/02 00:30:13;;;;;;;9.63;8.73;;;;;;;15.63;100.00;149965.06;6184434;23;20166;-58
2023/12/02 00:32:42;;;;;;;9.37;7.87;;;;;;;15.72;100.00;149989.19;6184190;23;20162;-59
2023/12/02 00:35:09;;;;;;;8.80;8.00;;;;;;;15.75;100.00;149996.78;6183943;23;20158;-58
2023/12/02 00:37:36;;;;;;;8.77;8.07;;;;;;;15.75;100.00;149996.78;6184273;23;20158;-58
2023/12/02 00:40:04;;;;;;;9.27;8.37;;;;;;;15.62;100.00;149962.50;6183847;23;20216;-59
2023/12/02 00:42:31;;;;;;;7.27;6.97;;;;;;;15.68;100.00;149977.75;6183659;23;20162;-59
2023/12/02 00:44:58;;;;;;;8.17;7.50;;;;;;;15.67;100.00;149975.22;6183960;23;20178;-58
2023/12/02 00:47:25;;;;;;;8.63;8.03;;;;;;;15.64;100.00;149967.63;6183654;23;20161;-59
2023/12/02 00:49:53;;;;;;;8.03;7.33;;;;;;;15.61;100.00;149960.00;6183963;23;20502;-58
2023/12/02 00:52:20;;;;;;;8.20;7.60;;;;;;;15.54;100.00;149943.50;6183716;23;20202;-59
2023/12/02 00:54:47;;;;;;;8.93;7.97;;;;;;;15.60;100.00;149957.47;6184821;23;20165;-60
2023/12/02 00:57:14;;;;;;;9.20;8.60;;;;;;;15.58;100.00;149952.34;6185702;23;20180;-59
2023/12/02 00:59:41;;;;;;;8.27;7.73;;;;;;;15.45;100.00;149920.59;6186381;23;20216;-59
2023/12/02 01:02:08;;;;;;;8.43;7.57;;;;;;;15.40;100.00;149907.94;6185680;23;20162;-58
2023/12/02 01:04:35;;;;;;;8.53;7.83;;;;;;;15.46;100.00;149923.13;6185867;23;20182;-58
2023/12/02 01:07:04;;;;;;;8.70;7.97;;;;;;;15.40;100.00;149907.94;6185559;23;20168;-59
2023/12/02 01:09:31;;;;;;;9.00;8.10;;;;;;;15.34;100.00;149892.69;6185603;23;20162;-59
2023/12/02 01:11:58;;;;;;;9.33;8.63;;;;;;;15.35;100.00;149895.25;6185547;23;20158;-58
2023/12/02 01:14:26;;;;;;;10.10;9.37;;;;;;;15.28;100.00;149877.44;6186153;23;20582;-59
2023/12/02 01:16:53;;;;;;;9.40;8.70;;;;;;;15.24;100.00;149867.31;6185529;23;20216;-59
2023/12/02 01:19:21;;;;;;;9.37;8.53;;;;;;;15.25;100.00;149869.84;6185539;23;20216;-59
2023/12/02 01:21:48;;;;;;;8.40;7.90;;;;;;;15.29;100.00;149880.00;6185843;23;20232;-59
2023/12/02 01:24:17;;;;;;;8.87;8.17;;;;;;;15.17;100.00;149849.56;6185501;23;20327;-63
2023/12/02 01:26:44;;;;;;;8.67;7.70;;;;;;;15.21;100.00;149859.72;6185402;23;20162;-58
2023/12/02 01:29:11;;;;;;;9.20;7.73;;;;;;;15.21;100.00;149859.72;6185879;23;20158;-59
2023/12/02 01:31:38;;;;;;;8.50;7.90;;;;;;;15.25;100.00;149871.13;6185586;23;20165;-59
2023/12/02 01:34:05;;;;;;;9.27;8.20;;;;;;;15.29;100.00;149880.00;6186503;23;20213;-59
2023/12/02 01:36:32;;;;;;;7.07;6.67;;;;;;;15.32;100.00;149887.66;6186069;23;20232;-58
2023/12/02 01:38:59;;;;;;;9.63;8.83;;;;;;;15.31;100.00;149885.09;6185468;23;20162;-59
2023/12/02 01:41:27;;;;;;;7.70;7.20;;;;;;;15.33;100.00;149891.44;6185976;23;20162;-58
2023/12/02 01:43:54;;;;;;;10.33;8.13;;;;;;;15.29;100.00;149881.28;6185877;23;20163;-59
2023/12/02 01:46:21;;;;;;;8.50;7.80;;;;;;;15.25;100.00;149871.13;6186028;23;20158;-58
2023/12/02 01:48:49;;;;;;;9.67;8.70;;;;;;;15.30;100.00;149882.56;6185836;23;20162;-58
2023/12/02 01:51:17;;;;;;;10.47;8.37;;;;;;;15.31;100.00;149885.09;6185639;23;20220;-59
2023/12/02 01:53:44;;;;;;;8.10;7.50;;;;;;;15.27;100.00;149874.94;6185275;23;20166;-58
2023/12/02 01:56:12;;;;;;;7.80;7.30;;;;;;;15.20;100.00;149857.16;6185557;23;20505;-58
2023/12/02 01:58:41;;;;;;;9.70;7.60;;;;;;;15.18;100.00;149852.13;6185028;23;20159;-59
2023/12/02 02:01:08;;;;;;;7.87;7.27;;;;;;;15.12;100.00;149836.88;6185184;23;20162;-59
2023/12/02 02:03:35;;;;;;;7.70;7.20;;;;;;;14.99;100.00;148938.56;6185418;23;20225;-58
2023/12/02 02:06:02;;;;;;;10.10;6.97;;;;;;;15.07;100.00;146416.19;6184640;23;20178;-59
2023/12/02 02:08:29;;;;;;;8.47;6.97;;;;;;;15.13;100.00;143125.88;6185485;23;20570;-59
2023/12/02 02:10:57;;;;;;;8.17;7.27;;;;;;;15.13;100.00;141356.44;6185411;23;20158;-59
2023/12/02 02:13:24;;;;;;;7.10;6.50;;;;;;;15.09;100.00;139790.34;6185289;23;20166;-59
2023/12/02 02:15:53;;;;;;;8.70;7.53;;;;;;;14.98;100.00;133037.22;6184994;23;20208;-59
2023/12/02 02:18:20;;;;;;;8.63;7.83;;;;;;;14.99;100.00;128357.06;6185346;23;20217;-58
2023/12/02 02:20:51;;;;;;;9.40;7.40;;;;;;;14.96;100.00;120007.97;6185402;23;20162;-59
2023/12/02 02:23:20;;;;;;;7.83;6.90;;;;;;;15.11;100.00;117703.22;6185259;23;20653;-58
2023/12/02 02:25:49;;;;;;;7.27;6.63;;;;;;;15.18;100.00;113387.59;6184780;23;20182;-58
2023/12/02 02:28:20;;;;;;;7.70;7.03;;;;;;;15.22;100.00;111732.34;6184917;23;20221;-59
2023/12/02 02:30:47;;;;;;;7.70;7.23;;;;;;;15.23;100.00;114063.00;6184870;23;20220;-59
2023/12/02 02:33:14;;;;;;;8.00;7.17;;;;;;;15.25;100.00;117065.63;6184942;23;20240;-60
2023/12/02 02:35:42;;;;;;;6.30;5.93;;;;;;;15.26;100.00;120734.06;6184823;23;20162;-59
2023/12/02 02:38:09;;;;;;;7.10;6.40;;;;;;;15.25;100.00;122401.31;6184659;23;20162;-59
2023/12/02 02:40:38;;;;;;;7.03;5.70;;;;;;;15.24;100.00;121730.78;6185114;23;20552;-58
2023/12/02 02:43:05;;;;;;;5.63;5.27;;;;;;;15.16;100.00;122047.94;6185143;23;20183;-58
2023/12/02 02:45:33;;;;;;;7.87;6.40;;;;;;;15.17;100.00;120048.66;6184967;23;20178;-59
2023/12/02 02:48:00;;;;;;;6.03;5.63;;;;;;;15.18;100.00;116385.41;6185186;23;20541;-58
2023/12/02 02:50:27;;;;;;;6.73;6.00;;;;;;;15.16;100.00;114715.28;6185235;23;20608;-59
2023/12/02 02:52:54;;;;;;;7.63;6.37;;;;;;;15.16;100.00;117380.94;6184468;23;20817;-58
2023/12/02 02:55:21;;;;;;;6.63;6.17;;;;;;;15.05;100.00;113364.53;6185170;23;20158;-58
2023/12/02 02:57:50;;;;;;;6.03;5.63;;;;;;;15.17;100.00;111390.19;6184480;23;20217;-58
2023/12/02 03:00:18;;;;;;;10.20;6.10;;;;;;;15.14;100.00;112048.88;6184783;23;20265;-58
2023/12/02 03:02:45;;;;;;;7.90;6.67;;;;;;;15.12;100.00;111047.19;6184783;23;20491;-59
2023/12/02 03:05:12;;;;;;;6.40;6.03;;;;;;;15.09;100.00;106390.50;6184267;23;20182;-59
2023/12/02 03:07:40;;;;;;;8.37;6.60;;;;;;;15.10;100.00;101412.97;6184439;23;20240;-59
2023/12/02 03:10:08;;;;;;;7.97;7.47;;;;;;;15.09;100.00;97103.22;6185561;23;20158;-60
2023/12/02 03:12:35;;;;;;;7.60;7.13;;;;;;;15.16;100.00;94132.88;6184363;23;20241;-58
2023/12/02 03:15:04;;;;;;;6.80;6.47;;;;;;;15.06;100.00;89818.09;6184588;23;20158;-58
2023/12/02 03:17:31;;;;;;;7.73;7.10;;;;;;;15.22;100.00;83565.78;6184259;23;20163;-58
2023/12/02 03:19:58;;;;;;;8.90;7.20;;;;;;;15.26;100.00;85222.09;6184334;23;20162;-58
2023/12/02 03:22:25;;;;;;;9.03;6.57;;;;;;;15.31;100.00;82918.56;6184420;23;20176;-58
2023/12/02 03:24:52;;;;;;;8.77;6.20;;;;;;;15.20;100.00;84223.00;6184308;23;20237;-58
2023/12/02 03:27:19;;;;;;;6.83;6.23;;;;;;;15.34;100.00;87215.72;6184322;23;20170;-57
2023/12/02 03:29:47;;;;;;;5.90;5.60;;;;;;;15.34;100.00;85233.72;6184323;23;20162;-59
2023/12/02 03:32:15;;;;;;;6.70;6.20;;;;;;;15.37;100.00;85238.78;6184121;23;20164;-58
2023/12/02 03:34:42;;;;;;;10.50;6.00;;;;;;;15.39;100.00;87553.63;6184249;23;20163;-59
2023/12/02 03:37:09;;;;;;;5.87;5.20;;;;;;;15.35;100.00;85566.16;6184585;23;20609;-59
2023/12/02 03:39:36;;;;;;;5.40;4.90;;;;;;;15.36;100.00;85897.19;6184096;23;20162;-58
2023/12/02 03:42:04;;;;;;;6.27;5.67;;;;;;;15.41;100.00;87887.88;6184179;23;20162;-63
2023/12/02 03:44:31;;;;;;;6.43;5.80;;;;;;;15.33;100.00;89858.63;6184140;23;20216;-58
2023/12/02 03:46:58;;;;;;;7.07;5.20;;;;;;;15.50;100.00;90877.13;6184729;23;20581;-60
2023/12/02 03:49:26;;;;;;;6.23;5.67;;;;;;;15.49;100.00;93524.25;6184415;23;20497;-59
2023/12/02 03:51:53;;;;;;;5.13;4.83;;;;;;;15.44;100.00;94177.75;6184166;23;20202;-58
2023/12/02 03:54:21;;;;;;;6.70;5.23;;;;;;;15.39;100.00;90529.31;6184343;23;20509;-58
2023/12/02 03:56:48;;;;;;;7.83;4.70;;;;;;;15.39;100.00;89206.47;6184127;23;20613;-58
2023/12/02 03:59:15;;;;;;;4.23;3.97;;;;;;;15.40;100.00;88878.09;6184018;23;20302;-59
2023/12/02 04:01:42;;;;;;;6.27;4.53;;;;;;;15.42;100.00;86236.34;6184382;23;20612;-59
2023/12/02 04:04:09;;;;;;;4.70;4.30;;;;;;;15.46;100.00;81619.69;6184373;23;20683;-58
2023/12/02 04:06:38;;;;;;;7.03;4.30;;;;;;;15.43;100.00;82276.19;6183896;23;20241;-59
2023/12/02 04:09:06;;;;;;;4.83;4.50;;;;;;;15.51;100.00;82947.59;6183960;23;20169;-59
2023/12/02 04:11:33;;;;;;;7.40;4.60;;;;;;;15.51;100.00;86249.59;6183990;23;20159;-59
2023/12/02 04:14:00;;;;;;;5.27;4.50;;;;;;;15.46;100.00;87234.31;6184339;23;20549;-59
2023/12/02 04:16:27;;;;;;;4.57;4.27;;;;;;;15.42;100.00;87227.59;6184244;23;20493;-59
2023/12/02 04:18:54;;;;;;;5.17;4.73;;;;;;;15.52;100.00;84599.28;6184765;23;20170;-59
2023/12/02 04:21:23;;;;;;;5.80;5.20;;;;;;;15.52;100.00;82618.22;6184890;23;20537;-59
2023/12/02 04:23:52;;;;;;;5.23;4.73;;;;;;;15.54;100.00;83281.28;6183794;23;20158;-59
2023/12/02 04:26:19;;;;;;;5.27;4.73;;;;;;;15.57;100.00;85927.25;6183782;23;20240;-59
2023/12/02 04:28:46;;;;;;;4.90;4.43;;;;;;;15.67;100.00;88587.50;6183742;23;20159;-59
2023/12/02 04:31:13;;;;;;;4.67;4.30;;;;;;;15.64;100.00;91891.00;6184040;23;20190;-59
2023/12/02 04:33:40;;;;;;;4.27;3.93;;;;;;;15.71;100.00;93888.94;6183779;23;20185;-60
2023/12/02 04:36:09;;;;;;;4.93;4.20;;;;;;;15.73;100.00;96212.69;6184100;23;20217;-59
2023/12/02 04:38:36;;;;;;;4.93;4.30;;;;;;;15.72;100.00;98199.72;6183614;23;20194;-58
2023/12/02 04:41:05;;;;;;;4.43;4.20;;;;;;;15.78;100.00;98542.34;6183760;23;20166;-59
2023/12/02 04:43:32;;;;;;;5.37;4.87;;;;;;;15.80;100.00;100868.75;6183929;23;20494;-60
2023/12/02 04:45:59;;;;;;;4.73;4.33;;;;;;;15.86;100.00;108522.84;6183499;23;20236;-58
2023/12/02 04:48:26;;;;;;;4.63;4.40;;;;;;;15.86;100.00;112184.91;6184068;23;20557;-59
2023/12/02 04:50:53;;;;;;;6.47;4.20;;;;;;;15.82;100.00;113510.78;6183729;23;20177;-59
2023/12/02 04:53:21;;;;;;;5.97;4.03;;;;;;;15.88;100.00;114522.13;6183739;23;20205;-58
2023/12/02 04:55:48;;;;;;;5.13;4.73;;;;;;;15.91;100.00;115193.75;6183771;23;20155;-59
2023/12/02 04:58:17;;;;;;;5.50;4.43;;;;;;;15.81;100.00;117175.84;6183635;23;20258;-59
2023/12/02 05:00:44;;;;;;;4.80;4.40;;;;;;;15.91;100.00;119865.44;6183574;23;20158;-59
2023/12/02 05:03:16;;;;;;;6.60;4.00;;;;;;;15.86;100.00;121190.88;6183662;23;20158;-58
2023/12/02 05:05:43;;;;;;;5.30;4.80;;;;;;;15.88;100.00;119859.38;6183419;23;20269;-58
2023/12/02 05:08:11;;;;;;;4.37;4.17;;;;;;;15.79;100.00;120173.88;6184163;23;20232;-58
2023/12/02 05:10:38;;;;;;;6.37;5.73;;;;;;;15.84;100.00;118849.97;6184660;23;20154;-59
2023/12/02 05:13:05;;;;;;;5.40;4.87;;;;;;;15.89;100.00;118526.31;6184581;23;20620;-58
2023/12/02 05:15:33;;;;;;;13.17;5.50;;;;;;;15.94;100.00;121207.28;6183989;23;20158;-59
2023/12/02 05:18:00;;;;;;;5.77;5.13;;;;;;;15.87;100.00;124532.97;6184005;23;20162;-58
2023/12/02 05:20:27;;;;;;;5.87;5.40;;;;;;;15.86;100.00;126203.63;6184386;23;20236;-60
2023/12/02 05:22:54;;;;;;;5.73;5.40;;;;;;;15.92;100.00;127554.50;6183952;23;20620;-59
2023/12/02 05:25:21;;;;;;;8.13;6.03;;;;;;;15.97;100.00;130913.00;6183569;23;20233;-59
2023/12/02 05:27:49;;;;;;;6.20;5.80;;;;;;;15.95;100.00;135600.47;6183574;23;20166;-58
2023/12/02 05:30:16;;;;;;;6.13;5.60;;;;;;;16.02;100.00;139641.25;6183983;23;20505;-58
2023/12/02 05:32:44;;;;;;;7.20;5.93;;;;;;;16.00;100.00;136952.56;6183527;23;20162;-59
2023/12/02 05:35:12;;;;;;;6.70;6.10;;;;;;;16.01;100.00;134607.06;6183910;23;20170;-59
2023/12/02 05:37:39;;;;;;;8.17;6.30;;;;;;;15.98;100.00;131920.16;6183409;23;20170;-59
2023/12/02 05:40:08;;;;;;;9.10;6.20;;;;;;;16.07;100.00;134956.09;6185141;23;20656;-59
2023/12/02 05:42:36;;;;;;;7.67;5.57;;;;;;;16.16;100.00;141592.88;6185238;23;20162;-58
2023/12/02 05:45:03;;;;;;;10.13;6.17;;;;;;;16.15;100.00;145916.84;6185127;23;20173;-59
2023/12/02 05:47:30;;;;;;;7.80;6.17;;;;;;;16.30;100.00;150133.88;6185651;23;20158;-59
2023/12/02 05:49:58;;;;;;;7.57;6.47;;;;;;;16.25;100.00;150121.22;6185232;23;20162;-60
2023/12/02 05:52:25;;;;;;;10.37;6.83;;;;;;;16.30;100.00;150135.16;6185348;23;20264;-58
2023/12/02 05:54:53;;;;;;;8.57;6.47;;;;;;;16.30;100.00;150133.88;6185201;23;20162;-59
2023/12/02 05:57:20;;;;;;;6.93;6.50;;;;;;;16.37;100.00;150152.97;6185182;23;20265;-60
2023/12/02 05:59:47;;;;;;;6.50;5.90;;;;;;;16.46;100.00;150175.78;6185486;23;20166;-60
2023/12/02 06:02:14;;;;;;;7.07;6.50;;;;;;;16.57;100.00;150201.19;6185620;23;20217;-59
2023/12/02 06:04:42;;;;;;;8.00;5.83;;;;;;;16.72;100.00;150239.38;6185526;23;20194;-59
2023/12/02 06:07:10;;;;;;;5.80;5.27;;;;;;;16.93;100.00;150291.44;6184830;23;20182;-59
2023/12/02 06:09:38;;;;;;;5.07;4.70;;;;;;;17.09;100.00;150333.34;6185099;23;20212;-59
2023/12/02 06:12:05;;;;;;;7.17;4.80;;;;;;;17.30;100.00;150386.72;6185393;23;20162;-59
2023/12/02 06:14:32;;;;;;;8.37;4.67;;;;;;;17.43;100.00;150417.22;6185416;23;20490;-58
2023/12/02 06:16:59;;;;;;;5.30;4.80;;;;;;;17.55;100.00;150448.97;6185417;23;20155;-60
2023/12/02 06:19:26;;;;;;;4.93;4.20;;;;;;;17.67;100.00;150479.50;6185361;23;20162;-60
2023/12/02 06:21:53;;;;;;;6.00;5.20;;;;;;;17.74;100.00;150497.28;6185433;23;20545;-59
2023/12/02 06:24:22;;;;;;;4.53;4.23;;;;;;;17.87;100.00;150527.78;6185320;23;20192;-60
2023/12/02 06:26:49;;;;;;;8.30;4.80;;;;;;;17.98;100.00;150555.78;6185255;23;20264;-59
2023/12/02 06:29:16;;;;;;;5.10;4.60;;;;;;;18.03;100.00;150569.78;6185388;23;20166;-59
2023/12/02 06:31:43;;;;;;;9.90;4.63;;;;;;;18.08;100.00;150581.19;6185910;23;20162;-59
2023/12/02 06:34:10;;;;;;;6.73;4.87;;;;;;;18.26;100.00;150626.97;6184883;23;20224;-59
2023/12/02 06:36:37;;;;;;;4.83;4.63;;;;;;;18.40;100.00;150661.31;6185165;23;20159;-58
2023/12/02 06:39:04;;;;;;;5.87;4.57;;;;;;;18.53;100.00;150695.72;6185760;23;20451;-59
2023/12/02 06:41:32;;;;;;;5.80;4.70;;;;;;;18.70;100.00;150737.69;6185156;23;20158;-59
2023/12/02 06:44:00;;;;;;;7.60;4.60;;;;;;;19.01;100.00;150815.28;6185153;23;20574;-60
2023/12/02 06:46:27;;;;;;;5.60;4.80;;;;;;;19.18;100.00;150859.75;6185021;23;20236;-59
2023/12/02 06:48:54;;;;;;;11.50;4.77;;;;;;;19.39;100.00;150910.72;6184751;23;20245;-60
2023/12/02 06:51:23;;;;;;;6.00;4.60;;;;;;;19.46;100.00;150928.56;6184909;23;20553;-58
2023/12/02 06:53:50;;;;;;;6.20;5.60;;;;;;;19.85;100.00;151027.84;6184638;23;20169;-59
2023/12/02 06:56:18;;;;;;;6.20;5.30;;;;;;;20.22;100.00;151119.50;6184787;23;20158;-59
2023/12/02 06:58:47;;;;;;;7.50;6.07;;;;;;;20.41;100.00;151167.94;6185030;23;20165;-60
2023/12/02 07:01:24;;;;;;;8.98;6.97;;;;;;;20.62;100.00;151221.44;6184756;23;20158;-59
2023/12/02 07:03:51;;;;;;;8.45;7.13;;;;;;;20.93;100.00;151299.09;6184614;23;20160;-58
2023/12/02 07:06:18;;;;;;;10.00;8.43;;;;;;;21.31;100.00;151394.69;6184512;23;20178;-59
2023/12/02 07:08:45;;;;;;;7.40;6.90;;;;;;;21.37;100.00;151411.28;6184603;23;20162;-60
2023/12/02 07:11:12;;;;;;;9.80;6.97;;;;;;;21.30;100.00;151393.41;6185578;23;20158;-59
2023/12/02 07:13:39;;;;;;;9.43;6.72;;;;;;;21.29;100.00;151390.91;6184942;23;20185;-59
2023/12/02 07:16:08;;;;;;;6.82;5.88;;;;;;;21.12;100.00;151347.59;6184883;23;20236;-58
2023/12/02 07:18:35;;;;;;;8.50;4.93;;;;;;;21.10;100.00;151341.13;6184964;23;20162;-59
2023/12/02 07:21:02;;;;;;;6.85;5.47;;;;;;;21.00;100.00;151315.69;6184465;23;20216;-60
2023/12/02 07:23:29;;;;;;;5.97;4.77;;;;;;;20.93;100.00;151299.09;6184951;23;20162;-59
2023/12/02 07:25:57;;;;;;;10.27;5.67;;;;;;;21.00;100.00;151316.97;6184358;23;20229;-59
2023/12/02 07:28:24;;;;;;;6.50;5.32;;;;;;;20.74;100.00;151250.72;6184863;23;20162;-60
2023/12/02 07:30:51;;;;;;;5.20;4.85;;;;;;;20.95;100.00;151305.50;6184317;23;20167;-59
2023/12/02 07:33:21;;;;;;;9.75;6.13;;;;;;;20.70;100.00;151240.53;6184578;23;20246;-60
2023/12/02 07:35:48;;;;;;;7.03;6.35;;;;;;;20.90;100.00;151291.47;6184530;23;20299;-59
2023/12/02 07:38:15;;;;;;;7.80;7.00;;;;;;;21.35;100.00;151404.91;6184342;23;20221;-59
2023/12/02 07:40:42;;;;;;;9.82;7.63;;;;;;;21.72;100.00;151499.25;6184773;23;20166;-60
2023/12/02 07:43:10;;;;;;;9.63;6.95;;;;;;;22.17;100.00;151612.72;6184142;23;20174;-59
2023/12/02 07:45:37;;;;;;;7.05;6.45;;;;;;;22.84;100.00;151781.09;6184352;23;20511;-60
2023/12/02 07:48:05;;;;;;;6.55;5.95;;;;;;;23.58;100.00;151968.75;6184171;23;20165;-58
2023/12/02 07:50:33;;;;;;;8.85;6.40;;;;;;;24.41;100.00;152176.84;6184351;23;20412;-59
2023/12/02 07:53:00;;;;;;;5.93;5.35;;;;;;;25.26;100.00;152391.47;6183966;23;20228;-60
2023/12/02 07:55:27;;;;;;;8.35;5.57;;;;;;;26.20;100.00;152629.28;6184188;23;20268;-60
2023/12/02 07:57:54;;;;;;;14.75;6.10;;;;;;;26.40;100.00;152680.41;6184512;23;20158;-59
2023/12/02 08:00:23;;;;;;;8.85;5.22;;;;;;;27.51;96.78;152961.91;6184695;23;20204;-61
2023/12/02 08:02:50;;;;;;;5.13;4.70;;;;;;;28.03;90.90;153093.75;6184138;23;20664;-60
2023/12/02 08:05:17;;;;;;;7.70;4.75;;;;;;;28.59;84.82;153235.91;6184050;23;20158;-60
2023/12/02 08:07:46;;;;;;;7.35;4.28;;;;;;;28.91;80.00;153316.59;6183892;23;20188;-60
2023/12/02 08:10:13;;;;;;;9.95;4.35;;;;;;;29.14;79.48;153374.25;6183883;23;20162;-60
2023/12/02 08:12:40;;;;;;;10.57;3.97;;;;;;;29.47;77.92;153458.81;6183867;23;20154;-60
2023/12/02 08:15:08;;;;;;;7.65;4.13;;;;;;;29.70;74.42;153516.50;6183839;23;20166;-59
2023/12/02 08:17:35;;;;;;;6.22;3.53;;;;;;;29.94;72.53;153576.75;6183853;23;20158;-61
2023/12/02 08:20:03;;;;;;;10.25;3.30;;;;;;;30.20;71.67;153642.09;6184225;23;20548;-60
2023/12/02 08:22:31;;;;;;;12.43;3.38;;;;;;;30.29;68.70;153666.47;6184201;23;20507;-60
2023/12/02 08:24:59;;;;;;;11.80;3.70;;;;;;;29.76;71.84;153530.56;6183712;23;20163;-60
2023/12/02 08:27:26;;;;;;;14.23;3.40;;;;;;;29.01;75.40;153340.94;6184191;23;20209;-59
2023/12/02 08:29:54;;;;;;;6.38;3.50;;;;;;;29.04;75.17;153349.88;6184089;23;20533;-60
2023/12/02 08:32:21;;;;;;;5.28;2.63;;;;;;;28.46;80.10;153201.31;6184085;23;20158;-60
2023/12/02 08:34:48;;;;;;;7.90;2.72;;;;;;;27.44;84.32;152943.97;6183800;23;20162;-59
2023/12/02 08:37:15;;;;;;;6.03;3.13;;;;;;;27.22;87.68;152887.66;6183817;23;20166;-59
2023/12/02 08:39:42;;;;;;;6.93;3.15;;;;;;;26.96;91.43;152822.44;6184210;23;20672;-60
2023/12/02 08:42:11;;;;;;;9.98;3.92;;;;;;;26.39;95.78;152676.63;6183669;23;20162;-60
2023/12/02 08:44:39;;;;;;;11.95;3.97;;;;;;;26.51;97.04;152708.59;6183702;23;20245;-60
2023/12/02 08:47:06;;;;;;;7.75;3.22;;;;;;;26.69;94.74;152753.34;6184397;23;20240;-60
2023/12/02 08:49:33;;;;;;;7.43;3.47;;;;;;;26.73;94.95;152764.81;6183710;23;20163;-60
2023/12/02 08:52:00;;;;;;;12.77;3.25;;;;;;;26.68;95.95;152752.06;6183748;23;20612;-61
2023/12/02 08:54:27;;;;;;;7.25;3.10;;;;;;;26.93;92.79;152813.47;6184080;23;20493;-59
2023/12/02 08:56:55;;;;;;;10.93;3.03;;;;;;;26.47;94.25;152697.06;6184097;23;20586;-59
2023/12/02 08:59:23;;;;;;;10.10;3.35;;;;;;;26.55;96.48;152717.53;6183592;23;20228;-58
2023/12/02 09:01:51;;;;;;;8.80;2.80;;;;;;;26.64;93.62;152741.84;6183641;23;20159;-59
2023/12/02 09:04:18;;;;;;;4.95;3.10;;;;;;;26.35;96.79;152668.91;6183756;23;20162;-60
2023/12/02 09:06:45;;;;;;;6.22;2.33;;;;;;;26.12;98.38;152608.78;6184031;23;20715;-60
2023/12/02 09:09:12;;;;;;;5.68;2.85;;;;;;;26.16;98.14;152619.03;6183770;23;20201;-60
2023/12/02 09:11:41;;;;;;;5.35;2.95;;;;;;;26.77;95.45;152775.09;6183992;23;20601;-60
2023/12/02 09:14:08;;;;;;;10.55;3.60;;;;;;;27.52;89.68;152964.50;6184445;23;20158;-59
2023/12/02 09:16:37;;;;;;;11.52;3.40;;;;;;;28.03;84.22;153093.75;6185450;23;20154;-60
2023/12/02 09:19:31;;;;;;;9.55;3.15;;;;;;;28.32;81.38;153166.75;6185506;23;20168;-60
2023/12/02 09:21:58;;;;;;;9.73;3.70;;;;;;;28.55;79.69;153225.66;6183441;23;20621;-59
2023/12/02 09:24:35;;;;;;;5.35;3.00;;;;;;;29.29;76.05;153411.41;6186014;23;20163;-59
2023/12/02 09:27:05;;;;;;;7.32;2.67;;;;;;;29.17;76.32;153381.91;6185678;23;20240;-60
2023/12/02 09:29:38;;;;;;;12.88;4.13;;;;;;;29.04;77.21;153348.59;6185450;23;20172;-60
2023/12/02 09:32:43;;;;;;;12.88;3.30;;;;;;;28.76;76.19;153278.19;6185496;23;20162;-60
2023/12/02 09:35:10;;;;;;;13.35;3.05;;;;;;;28.49;78.91;153210.25;6185755;23;20209;-60
2023/12/02 09:37:55;;;;;;;13.98;3.97;;;;;;;28.21;83.14;153138.59;6185282;23;20189;-60
2023/12/02 09:40:55;;;;;;;14.13;3.10;;;;;;;28.12;81.85;153115.56;6185127;23;20164;-58
2023/12/02 09:43:27;;;;;;;12.52;3.10;;;;;;;28.06;81.29;153101.41;6150215;23;20240;-60
2023/12/02 09:46:22;;;;;;;8.95;3.08;;;;;;;27.79;83.66;153032.31;6185262;23;20166;-60
2023/12/02 09:49:21;;;;;;;12.23;3.00;;;;;;;27.17;85.68;152876.16;6174793;23;20174;-60
2023/12/02 09:52:00;;;;;;;8.77;2.40;;;;;;;28.12;82.26;153115.56;6163432;23;20672;-60
2023/12/02 09:54:39;;;;;;;5.45;2.53;;;;;;;28.72;78.35;153267.94;6185112;23;20158;-59
2023/12/02 09:57:13;;;;;;;5.78;2.25;;;;;;;28.60;75.83;153237.19;6185021;23;20154;-60
2023/12/02 09:59:51;;;;;;;2.25;2.05;;;;;;;29.31;73.33;153417.84;6186049;23;20166;-61
2023/12/02 10:02:30;;;;;;;2.65;2.10;;;;;;;28.82;74.05;153292.25;6185251;23;20162;-60
2023/12/02 10:05:10;;;;;;;5.30;2.35;;;;;;;29.34;73.79;153424.22;6185453;23;20159;-60
2023/12/02 10:07:52;;;;;;;6.95;2.92;;;;;;;29.12;75.70;153369.09;6185397;23;20233;-60
2023/12/02 10:10:25;;;;;;;12.85;5.97;;;;;;;29.43;73.51;153448.56;6185318;23;20245;-60
2023/12/02 10:13:08;;;;;;;4.22;2.35;;;;;;;28.28;76.24;153156.50;6185315;23;20190;-60
2023/12/02 10:15:38;;;;;;;5.10;1.88;;;;;;;28.20;77.15;153136.03;6185068;23;20241;-60
2023/12/02 10:18:12;;;;;;;6.45;2.95;;;;;;;28.38;76.92;153180.84;6184871;23;20166;-60
2023/12/02 10:20:42;;;;;;;4.68;2.53;;;;;;;27.69;82.85;153006.72;6184930;23;20162;-60
2023/12/02 10:23:25;;;;;;;22.13;13.18;;;;;;;27.37;85.39;152926.03;6185289;23;20650;-59
2023/12/02 10:26:02;;;;;;;19.17;12.13;;;;;;;27.05;87.67;152844.19;6184687;23;20241;-61
2023/12/02 10:28:43;;;;;;;21.95;12.30;;;;;;;27.37;87.23;152926.03;6184699;23;20186;-60
2023/12/02 10:31:15;;;;;;;27.15;16.80;;;;;;;27.48;85.81;152952.97;6185809;23;20513;-61
2023/12/02 10:33:53;;;;;;;32.97;16.42;;;;;;;26.97;88.51;152823.72;6185473;23;20172;-59
2023/12/02 10:36:24;;;;;;;31.00;16.27;;;;;;;26.55;91.99;152717.53;6184796;23;20154;-61
2023/12/02 10:39:01;;;;;;;27.23;17.02;;;;;;;26.43;94.52;152688.13;6185446;23;20163;-61
2023/12/02 10:41:36;;;;;;;24.38;14.38;;;;;;;26.26;95.38;152644.66;6186193;23;20553;-60
2023/12/02 10:44:05;;;;;;;23.33;15.20;;;;;;;26.04;98.54;152588.34;6184843;23;20237;-60
2023/12/02 10:46:34;;;;;;;25.00;12.25;;;;;;;25.47;100.00;152445.13;6184553;23;20261;-60
2023/12/02 10:49:02;;;;;;;10.73;7.40;;;;;;;24.88;100.00;152296.94;6185014;23;20478;-58
2023/12/02 10:51:35;;;;;;;13.68;9.05;;;;;;;25.09;100.00;152348.03;6184358;23;20174;-59
2023/12/02 10:54:06;;;;;;;18.17;7.47;;;;;;;24.77;100.00;152268.81;6184660;23;20166;-59
2023/12/02 10:56:35;;;;;;;10.13;5.75;;;;;;;24.50;100.00;152201.13;6184923;23;20597;-59
2023/12/02 10:59:03;;;;;;;16.83;7.00;;;;;;;24.25;100.00;152137.28;6184607;23;20166;-60
2023/12/02 11:01:38;;;;;;;12.10;5.63;;;;;;;23.97;100.00;152065.75;6184545;23;20162;-59
2023/12/02 11:04:14;;;;;;;14.05;8.75;;;;;;;23.85;100.00;152036.34;6185040;23;20497;-59
2023/12/02 11:06:50;;;;;;;18.77;8.93;;;;;;;23.91;100.00;152051.69;6184405;23;20166;-59
2023/12/02 11:09:28;;;;;;;9.45;5.75;;;;;;;23.73;100.00;152004.44;6184515;23;20162;-59
2023/12/02 11:12:03;;;;;;;8.20;4.60;;;;;;;23.63;100.00;151980.22;6184768;23;20162;-58
2023/12/02 11:14:37;;;;;;;17.20;10.52;;;;;;;23.88;100.00;152044.03;6184376;23;20241;-59
2023/12/02 11:17:11;;;;;;;11.45;6.60;;;;;;;23.90;100.00;152047.84;6184712;23;20162;-59
2023/12/02 11:19:55;;;;;;;16.45;10.68;;;;;;;23.80;100.00;152022.34;6184872;23;20169;-59
2023/12/02 11:22:36;;;;;;;44.03;23.85;;;;;;;23.85;100.00;152036.34;6184270;23;20196;-59
2023/12/02 11:25:18;;;;;;;40.50;24.90;;;;;;;23.61;100.00;151975.09;6185282;23;20158;-58